Time;durP1;ratioP1;P1;durP2;ratioP2;P2;SDS_P1;SDS_P2;PMS_P1;PMS_P2;Temp;Humidity;BMP_temperature;BMP_pressure;BME280_temperature;BME280_humidity;BME280_pressure;Samples;Min_cycle;Max_cycle;Signal;HPM_P1;HPM_P2
2022/10/19 00:00:23;;;;;;;3.25;1.50;;;17.40;89.00;;;;;;5008342;28;20030;-83
2022/10/19 00:02:49;;;;;;;2.65;1.50;;;17.40;89.00;;;;;;4991741;28;20134;-82
2022/10/19 00:05:14;;;;;;;3.25;1.60;;;17.40;89.10;;;;;;5008174;28;20948;-83
2022/10/19 00:07:40;;;;;;;3.88;1.30;;;17.40;89.10;;;;;;4992104;28;20027;-82
2022/10/19 00:10:05;;;;;;;1.95;1.33;;;17.30;89.10;;;;;;4992468;28;20114;-82
2022/10/19 00:12:31;;;;;;;2.53;1.40;;;17.40;89.30;;;;;;4998807;28;20121;-84
2022/10/19 00:14:57;;;;;;;1.67;1.15;;;17.30;89.20;;;;;;5000496;28;20030;-83
2022/10/19 00:17:22;;;;;;;2.83;1.35;;;17.30;89.20;;;;;;4996107;28;20030;-83
2022/10/19 00:19:48;;;;;;;2.40;1.50;;;17.30;89.20;;;;;;4996694;28;20057;-84
2022/10/19 00:22:13;;;;;;;2.38;1.40;;;17.40;89.30;;;;;;4997355;28;20041;-83
2022/10/19 00:24:39;;;;;;;2.53;1.25;;;17.30;89.30;;;;;;4995852;28;20022;-84
2022/10/19 00:27:05;;;;;;;2.65;1.30;;;17.30;89.20;;;;;;4996192;28;20038;-82
2022/10/19 00:29:31;;;;;;;2.60;1.42;;;17.30;89.30;;;;;;4990126;28;20034;-82
2022/10/19 00:31:56;;;;;;;2.15;1.30;;;17.30;89.20;;;;;;4995171;28;20030;-83
2022/10/19 00:34:22;;;;;;;3.90;1.55;;;17.30;89.30;;;;;;4996166;28;20081;-84
2022/10/19 00:36:48;;;;;;;2.88;1.40;;;17.30;89.30;;;;;;4995711;28;20026;-82
2022/10/19 00:39:18;;;;;;;2.63;1.38;;;17.30;89.30;;;;;;4996016;28;20031;-83
2022/10/19 00:41:45;;;;;;;2.83;1.23;;;17.30;89.30;;;;;;4993713;28;20126;-83
2022/10/19 00:44:10;;;;;;;2.33;1.30;;;17.40;89.40;;;;;;4993571;28;20519;-84
2022/10/19 00:46:42;;;;;;;3.25;1.50;;;17.30;89.20;;;;;;4994298;28;20030;-84
2022/10/19 00:49:20;;;;;;;2.20;1.20;;;17.30;89.20;;;;;;4994846;28;20062;-83
2022/10/19 00:51:49;;;;;;;3.10;1.50;;;17.30;89.10;;;;;;4994540;28;20041;-84
2022/10/19 00:54:17;;;;;;;2.45;1.33;;;17.30;89.10;;;;;;4994345;28;20050;-83
2022/10/19 00:56:46;;;;;;;3.50;1.70;;;17.30;89.00;;;;;;5009772;28;20072;-83
2022/10/19 00:59:15;;;;;;;2.25;1.30;;;17.40;89.00;;;;;;5009055;28;20019;-83
2022/10/19 01:01:43;;;;;;;2.80;1.33;;;17.40;88.90;;;;;;5008790;28;20579;-82
2022/10/19 01:04:09;;;;;;;2.50;1.30;;;17.40;88.90;;;;;;4992716;28;20069;-83
2022/10/19 01:06:35;;;;;;;3.03;1.33;;;17.40;89.00;;;;;;4992543;28;20034;-83
2022/10/19 01:09:01;;;;;;;2.90;1.35;;;17.30;89.00;;;;;;4991623;28;20030;-83
2022/10/19 01:11:45;;;;;;;2.92;1.45;;;17.30;89.00;;;;;;4998859;28;20443;-82
2022/10/19 01:14:51;;;;;;;2.95;1.50;;;17.30;89.10;;;;;;4993030;28;20026;-82
2022/10/19 01:17:54;;;;;;;1.92;1.20;;;17.30;89.00;;;;;;4995397;28;20520;-84
2022/10/19 01:20:44;;;;;;;2.85;1.40;;;17.30;89.00;;;;;;4995447;28;20040;-83
2022/10/19 01:23:47;;;;;;;2.35;1.30;;;17.30;89.10;;;;;;4994118;28;20077;-83
2022/10/19 01:26:40;;;;;;;2.30;1.30;;;17.30;89.10;;;;;;5003840;28;20158;-84
2022/10/19 01:29:43;;;;;;;2.58;1.35;;;17.20;89.10;;;;;;4994196;28;20034;-84
2022/10/19 01:32:24;;;;;;;3.08;1.38;;;17.30;89.20;;;;;;4995044;28;20026;-83
2022/10/19 01:34:54;;;;;;;;;;;17.20;89.10;;;;;;4994201;28;20023;-82
2022/10/19 01:37:38;;;;;;;2.83;1.30;;;17.30;89.20;;;;;;4993346;28;19941;-83
2022/10/19 01:40:26;;;;;;;2.85;1.50;;;17.30;89.20;;;;;;4976276;28;20033;-85
2022/10/19 01:43:08;;;;;;;2.90;1.40;;;17.30;89.70;;;;;;4994158;28;20026;-83
2022/10/19 01:45:47;;;;;;;4.47;1.50;;;17.30;89.20;;;;;;4994052;28;20030;-82
2022/10/19 01:48:24;;;;;;;3.03;1.30;;;17.30;89.10;;;;;;4992143;28;20031;-83
2022/10/19 01:50:56;;;;;;;2.50;1.48;;;17.30;89.00;;;;;;4993197;28;20037;-83
2022/10/19 01:53:24;;;;;;;2.42;1.35;;;17.30;89.00;;;;;;5008396;28;20077;-82
2022/10/19 01:55:51;;;;;;;1.92;1.20;;;17.30;89.10;;;;;;4993210;28;20026;-82
2022/10/19 01:58:23;;;;;;;2.05;1.10;;;17.30;88.90;;;;;;5008323;28;20381;-83
2022/10/19 02:00:51;;;;;;;2.40;1.20;;;17.30;88.80;;;;;;4993027;28;20076;-82
2022/10/19 02:03:18;;;;;;;3.63;1.45;;;17.40;88.80;;;;;;4992895;28;20125;-82
2022/10/19 02:05:44;;;;;;;2.80;1.30;;;17.30;88.80;;;;;;5007984;28;20034;-83
2022/10/19 02:08:15;;;;;;;3.33;1.50;;;17.30;88.90;;;;;;5007159;28;20758;-83
2022/10/19 02:10:43;;;;;;;2.87;1.30;;;17.30;88.90;;;;;;4991960;28;20026;-83
2022/10/19 02:13:11;;;;;;;3.15;1.40;;;17.30;89.00;;;;;;4990235;28;20032;-82
2022/10/19 02:15:39;;;;;;;3.63;1.50;;;17.30;89.00;;;;;;4989686;28;20112;-81
2022/10/19 02:18:07;;;;;;;3.72;1.50;;;17.20;88.90;;;;;;4991246;28;20058;-80
2022/10/19 02:20:35;;;;;;;2.53;1.38;;;17.30;88.90;;;;;;4988251;28;20023;-80
2022/10/19 02:23:03;;;;;;;2.50;1.30;;;17.30;89.00;;;;;;5005171;28;20100;-81
2022/10/19 02:25:29;;;;;;;3.40;1.40;;;17.20;88.90;;;;;;4978596;28;20029;-81
2022/10/19 02:27:54;;;;;;;2.72;1.30;;;17.20;89.00;;;;;;5006328;28;20400;-80
2022/10/19 02:30:21;;;;;;;3.90;1.50;;;17.30;89.00;;;;;;4980370;28;20031;-80
2022/10/19 02:32:46;;;;;;;3.10;1.30;;;17.30;89.00;;;;;;4994471;28;20057;-80
2022/10/19 02:35:13;;;;;;;3.97;1.33;;;17.20;89.00;;;;;;4989368;28;20034;-81
2022/10/19 02:37:39;;;;;;;3.13;1.52;;;17.20;89.00;;;;;;5005632;28;20033;-80
2022/10/19 02:40:06;;;;;;;2.78;1.30;;;17.20;89.00;;;;;;4992307;28;20014;-80
2022/10/19 02:42:38;;;;;;;3.00;1.42;;;17.20;89.00;;;;;;5009284;28;20026;-81
2022/10/19 02:45:13;;;;;;;1.60;1.17;;;17.20;89.00;;;;;;4984073;28;20030;-81
2022/10/19 02:47:47;;;;;;;3.78;1.33;;;17.20;89.00;;;;;;5009785;28;20033;-81
2022/10/19 02:50:13;;;;;;;2.63;1.20;;;17.20;88.90;;;;;;4994383;28;20077;-81
2022/10/19 02:52:40;;;;;;;3.22;1.30;;;17.20;88.90;;;;;;4994757;28;20443;-80
2022/10/19 02:55:06;;;;;;;2.30;1.33;;;17.30;88.80;;;;;;4994506;28;20031;-80
2022/10/19 02:57:32;;;;;;;2.95;1.70;;;17.30;88.90;;;;;;4993519;28;20022;-81
2022/10/19 02:59:58;;;;;;;2.72;1.10;;;17.30;88.80;;;;;;5007842;28;20033;-80
2022/10/19 03:02:24;;;;;;;3.10;1.30;;;17.30;88.70;;;;;;5007733;28;20908;-82
2022/10/19 03:04:50;;;;;;;3.08;1.30;;;17.30;88.70;;;;;;4991543;28;20038;-80
2022/10/19 03:07:18;;;;;;;2.20;1.13;;;17.30;88.70;;;;;;4994107;28;20440;-81
2022/10/19 03:09:44;;;;;;;2.85;1.20;;;17.30;88.70;;;;;;4993596;28;20535;-81
2022/10/19 03:12:10;;;;;;;2.83;1.25;;;17.30;88.80;;;;;;4994408;28;20512;-82
2022/10/19 03:14:36;;;;;;;2.60;1.15;;;17.20;88.80;;;;;;4994117;28;20088;-82
2022/10/19 03:17:02;;;;;;;2.55;1.20;;;17.30;88.90;;;;;;4991981;28;20022;-81
2022/10/19 03:19:28;;;;;;;2.28;1.00;;;17.20;88.80;;;;;;4990821;28;20039;-82
2022/10/19 03:21:53;;;;;;;2.40;1.20;;;17.30;88.80;;;;;;4991891;28;20034;-80
2022/10/19 03:24:19;;;;;;;2.45;1.42;;;17.20;88.80;;;;;;4994171;28;20027;-80
2022/10/19 03:26:44;;;;;;;3.20;1.40;;;17.20;88.80;;;;;;4992487;28;20037;-80
2022/10/19 03:29:10;;;;;;;3.55;1.40;;;17.20;88.80;;;;;;5007288;28;20026;-80
2022/10/19 03:31:35;;;;;;;2.90;1.40;;;17.20;88.90;;;;;;5007730;28;20030;-81
2022/10/19 03:34:01;;;;;;;3.67;1.30;;;17.20;88.90;;;;;;4984330;28;20030;-81
2022/10/19 03:36:32;;;;;;;2.63;1.20;;;17.20;88.80;;;;;;4992086;28;20034;-81
2022/10/19 03:39:00;;;;;;;2.47;1.40;;;17.20;88.90;;;;;;4999772;28;20031;-82
2022/10/19 03:41:28;;;;;;;2.38;1.10;;;17.30;88.90;;;;;;4996923;28;20045;-82
2022/10/19 03:43:54;;;;;;;2.47;1.30;;;17.20;88.90;;;;;;5014359;28;20037;-81
2022/10/19 03:46:20;;;;;;;2.20;1.20;;;17.20;88.90;;;;;;4998366;28;20041;-81
2022/10/19 03:48:46;;;;;;;2.35;1.20;;;17.20;88.90;;;;;;5013326;28;20090;-81
2022/10/19 03:51:18;;;;;;;2.67;1.35;;;17.20;88.80;;;;;;5011518;28;20030;-82
2022/10/19 03:53:44;;;;;;;2.58;1.20;;;17.30;88.80;;;;;;4992078;28;20043;-81
2022/10/19 03:56:18;;;;;;;2.42;1.20;;;17.20;88.70;;;;;;4995862;28;20037;-83
2022/10/19 03:58:45;;;;;;;2.03;1.20;;;17.30;88.70;;;;;;5005746;28;20039;-83
2022/10/19 04:01:16;;;;;;;2.88;1.13;;;17.30;88.70;;;;;;5011064;28;20075;-83
2022/10/19 04:03:41;;;;;;;1.95;1.10;;;17.30;88.70;;;;;;4996141;28;20038;-82
2022/10/19 04:06:15;;;;;;;3.13;1.25;;;17.30;88.50;;;;;;5010094;28;20138;-82
2022/10/19 04:08:41;;;;;;;3.25;1.27;;;17.30;88.50;;;;;;4994765;28;20049;-82
2022/10/19 04:11:11;;;;;;;2.63;1.20;;;17.30;88.60;;;;;;5009605;28;20129;-82
2022/10/19 04:13:36;;;;;;;1.70;1.00;;;17.30;88.60;;;;;;4994184;28;20061;-81
2022/10/19 04:16:03;;;;;;;3.33;1.20;;;17.30;88.60;;;;;;5010044;28;20054;-81
2022/10/19 04:18:28;;;;;;;3.03;1.20;;;17.30;88.70;;;;;;4995071;28;20022;-82
2022/10/19 04:20:55;;;;;;;2.83;1.20;;;17.20;88.60;;;;;;4992747;28;20030;-81
2022/10/19 04:23:21;;;;;;;3.20;1.40;;;17.30;88.70;;;;;;4991663;28;20031;-82
2022/10/19 04:25:46;;;;;;;3.13;1.23;;;17.20;88.60;;;;;;5009614;28;20804;-81
2022/10/19 04:28:12;;;;;;;2.75;1.20;;;17.20;88.60;;;;;;4992965;28;20504;-82
2022/10/19 04:30:37;;;;;;;2.22;1.30;;;17.20;88.70;;;;;;4994068;28;20413;-82
2022/10/19 04:33:03;;;;;;;2.78;1.20;;;17.20;88.70;;;;;;4995110;28;20053;-83
2022/10/19 04:35:28;;;;;;;3.75;1.20;;;17.20;88.70;;;;;;4998601;28;20032;-82
2022/10/19 04:37:54;;;;;;;2.55;1.25;;;17.20;88.70;;;;;;5017269;28;20038;-85
2022/10/19 04:40:19;;;;;;;2.95;1.35;;;17.20;88.80;;;;;;4996407;28;20030;-82
2022/10/19 04:42:45;;;;;;;3.10;1.20;;;17.20;88.80;;;;;;4994519;28;20456;-84
2022/10/19 04:45:10;;;;;;;2.30;1.20;;;17.20;88.80;;;;;;5011154;28;20037;-81
2022/10/19 04:47:36;;;;;;;2.53;1.30;;;17.20;88.80;;;;;;5006228;28;20108;-80
2022/10/19 04:50:02;;;;;;;2.38;1.10;;;17.20;88.80;;;;;;4992217;28;20054;-81
2022/10/19 04:52:27;;;;;;;2.42;1.13;;;17.20;88.80;;;;;;4992562;28;20026;-79
2022/10/19 04:54:53;;;;;;;1.95;1.00;;;17.20;88.80;;;;;;4991978;28;20087;-83
2022/10/19 04:57:18;;;;;;;3.17;1.20;;;17.20;88.80;;;;;;4990414;28;20065;-84
2022/10/19 04:59:46;;;;;;;1.95;1.00;;;17.20;88.80;;;;;;4991111;28;20198;-81
2022/10/19 05:02:11;;;;;;;2.67;1.13;;;17.20;88.70;;;;;;4991522;28;20037;-79
2022/10/19 05:04:37;;;;;;;2.55;1.20;;;17.20;88.60;;;;;;5008489;28;20412;-80
2022/10/19 05:07:03;;;;;;;3.10;1.15;;;17.30;88.60;;;;;;4987488;28;20081;-80
2022/10/19 05:09:28;;;;;;;2.50;1.17;;;17.10;88.40;;;;;;4993671;28;20088;-77
2022/10/19 05:11:54;;;;;;;2.40;1.00;;;17.30;88.60;;;;;;5004780;28;20050;-77
2022/10/19 05:14:19;;;;;;;2.67;1.13;;;17.30;88.40;;;;;;5000832;28;20019;-80
2022/10/19 05:16:45;;;;;;;5.22;1.30;;;17.20;88.20;;;;;;4991678;28;20433;-79
2022/10/19 05:19:12;;;;;;;2.40;1.20;;;17.20;88.30;;;;;;4992387;28;20472;-82
2022/10/19 05:21:38;;;;;;;4.10;1.40;;;17.20;88.30;;;;;;4988355;28;20138;-79
2022/10/19 05:24:04;;;;;;;3.47;1.30;;;17.20;88.40;;;;;;4989968;28;20526;-85
2022/10/19 05:26:30;;;;;;;1.98;1.00;;;17.20;88.40;;;;;;4990988;28;20034;-82
2022/10/19 05:29:00;;;;;;;2.08;1.10;;;17.30;88.40;;;;;;4997394;28;20038;-80
2022/10/19 05:31:28;;;;;;;2.83;1.38;;;17.20;88.30;;;;;;4987166;28;20038;-81
2022/10/19 05:33:55;;;;;;;2.33;1.08;;;17.20;88.40;;;;;;4988403;28;20026;-80
2022/10/19 05:36:24;;;;;;;2.03;1.10;;;17.20;88.40;;;;;;4986169;28;20029;-80
2022/10/19 05:38:51;;;;;;;3.00;1.10;;;17.20;88.50;;;;;;4987625;28;20262;-80
2022/10/19 05:41:17;;;;;;;1.80;1.00;;;17.20;88.50;;;;;;4987775;28;20037;-82
2022/10/19 05:43:43;;;;;;;3.58;1.23;;;17.10;88.40;;;;;;4986455;28;20407;-79
2022/10/19 05:46:12;;;;;;;2.17;1.10;;;17.20;88.50;;;;;;4986387;28;20129;-81
2022/10/19 05:48:39;;;;;;;2.33;1.20;;;17.20;88.50;;;;;;4986622;28;20073;-80
2022/10/19 05:51:06;;;;;;;4.70;1.20;;;17.20;88.50;;;;;;4985771;28;20253;-78
2022/10/19 05:53:33;;;;;;;2.70;1.05;;;17.10;88.50;;;;;;4985788;28;20023;-79
2022/10/19 05:55:58;;;;;;;3.28;1.25;;;17.10;88.50;;;;;;4986927;28;20038;-79
2022/10/19 05:58:24;;;;;;;2.53;1.17;;;17.20;88.50;;;;;;4986368;28;20034;-80
2022/10/19 06:00:51;;;;;;;2.25;1.20;;;17.20;88.50;;;;;;4984675;28;20271;-79
2022/10/19 06:03:17;;;;;;;3.30;1.63;;;17.20;88.40;;;;;;4986920;28;20481;-78
2022/10/19 06:05:42;;;;;;;2.58;1.20;;;17.20;88.40;;;;;;4987305;28;20081;-78
2022/10/19 06:08:08;;;;;;;2.45;1.00;;;17.20;88.30;;;;;;4985788;28;20030;-80
2022/10/19 06:10:33;;;;;;;1.73;1.17;;;17.20;88.80;;;;;;4986332;28;20050;-79
2022/10/19 06:12:59;;;;;;;2.67;1.35;;;17.20;88.20;;;;;;4985802;28;20073;-80
2022/10/19 06:15:24;;;;;;;2.97;1.10;;;17.20;88.10;;;;;;4985033;28;20329;-81
2022/10/19 06:17:50;;;;;;;2.83;1.10;;;17.20;88.10;;;;;;4985333;28;20141;-79
2022/10/19 06:20:15;;;;;;;2.05;1.20;;;17.20;88.10;;;;;;4986514;28;20026;-79
2022/10/19 06:22:41;;;;;;;3.63;1.13;;;17.40;88.40;;;;;;4985241;28;20093;-80
2022/10/19 06:25:07;;;;;;;2.72;1.10;;;17.20;88.30;;;;;;4987434;28;20026;-80
2022/10/19 06:27:33;;;;;;;2.35;1.10;;;17.20;88.30;;;;;;4990072;28;20026;-81
2022/10/19 06:29:58;;;;;;;2.80;1.20;;;17.20;88.30;;;;;;4988129;28;20117;-81
2022/10/19 06:32:24;;;;;;;2.22;1.10;;;17.30;88.30;;;;;;4987029;28;20041;-81
2022/10/19 06:34:49;;;;;;;1.90;1.20;;;17.20;88.30;;;;;;4988017;28;20077;-80
2022/10/19 06:37:15;;;;;;;1.85;1.25;;;17.10;88.30;;;;;;4986657;28;20022;-81
2022/10/19 06:39:40;;;;;;;3.30;1.15;;;17.20;88.30;;;;;;4986943;28;20552;-81
2022/10/19 06:42:06;;;;;;;2.50;1.00;;;17.20;88.30;;;;;;4988189;28;20117;-80
2022/10/19 06:44:31;;;;;;;3.42;1.25;;;17.20;88.40;;;;;;4986998;28;20081;-80
2022/10/19 06:46:57;;;;;;;2.83;1.15;;;17.20;88.40;;;;;;4987844;28;20041;-82
2022/10/19 06:49:22;;;;;;;2.40;1.20;;;17.00;88.30;;;;;;4988083;28;20041;-82
2022/10/19 06:51:48;;;;;;;2.03;1.08;;;17.10;88.30;;;;;;4985600;28;20037;-79
2022/10/19 06:54:13;;;;;;;2.47;1.10;;;17.10;88.30;;;;;;4985744;28;20022;-79
2022/10/19 06:56:39;;;;;;;2.28;1.10;;;17.10;88.30;;;;;;4986320;28;20026;-81
2022/10/19 06:59:04;;;;;;;2.38;1.05;;;17.10;88.30;;;;;;4985814;28;20238;-80
2022/10/19 07:01:30;;;;;;;2.33;1.20;;;17.10;88.20;;;;;;4985882;28;20042;-79
2022/10/19 07:03:55;;;;;;;2.10;1.10;;;17.20;88.20;;;;;;4989906;28;20345;-80
2022/10/19 07:06:21;;;;;;;2.72;1.10;;;17.20;88.20;;;;;;4989254;28;20034;-80
2022/10/19 07:08:48;;;;;;;2.28;1.02;;;17.20;88.20;;;;;;4989989;28;20026;-81
2022/10/19 07:11:16;;;;;;;1.75;1.00;;;17.20;88.10;;;;;;4989501;28;20038;-83
2022/10/19 07:13:41;;;;;;;2.78;1.27;;;17.20;88.00;;;;;;4989537;28;20487;-80
2022/10/19 07:16:10;;;;;;;2.70;0.90;;;17.20;87.90;;;;;;4988633;28;20643;-81
2022/10/19 07:18:37;;;;;;;1.90;0.90;;;17.30;88.00;;;;;;4987973;28;20018;-80
2022/10/19 07:21:06;;;;;;;2.10;1.10;;;17.20;87.90;;;;;;4988310;28;20062;-80
2022/10/19 07:23:33;;;;;;;3.00;1.23;;;17.20;87.90;;;;;;4988486;28;20516;-80
2022/10/19 07:26:04;;;;;;;3.70;1.33;;;17.20;87.90;;;;;;5001172;28;20026;-79
2022/10/19 07:28:29;;;;;;;2.83;1.13;;;17.20;87.90;;;;;;4989098;28;20027;-82
2022/10/19 07:30:55;;;;;;;1.88;1.00;;;17.20;88.00;;;;;;5003991;28;20035;-79
2022/10/19 07:33:21;;;;;;;2.38;1.00;;;17.20;88.00;;;;;;4989635;28;20027;-79
2022/10/19 07:35:47;;;;;;;1.95;1.08;;;17.20;88.00;;;;;;4990432;28;20177;-79
2022/10/19 07:38:12;;;;;;;3.10;0.90;;;17.20;88.00;;;;;;4988991;28;20026;-80
2022/10/19 07:40:38;;;;;;;3.40;1.20;;;17.20;88.00;;;;;;5003652;28;20022;-79
2022/10/19 07:43:03;;;;;;;2.35;1.15;;;17.30;88.10;;;;;;4989563;28;20061;-79
2022/10/19 07:45:31;;;;;;;3.40;1.30;;;17.20;88.10;;;;;;4990712;28;20400;-80
2022/10/19 07:47:57;;;;;;;3.25;1.30;;;17.20;88.10;;;;;;5005942;28;20030;-80
2022/10/19 07:50:24;;;;;;;2.08;1.20;;;17.20;88.10;;;;;;5004990;28;20037;-80
2022/10/19 07:52:51;;;;;;;1.90;1.00;;;17.20;88.10;;;;;;4990585;28;20492;-80
2022/10/19 07:55:17;;;;;;;2.20;1.10;;;17.20;88.10;;;;;;5005369;28;20030;-81
2022/10/19 07:57:45;;;;;;;2.03;1.00;;;17.20;88.00;;;;;;5004180;28;20153;-80
2022/10/19 08:00:11;;;;;;;2.72;1.10;;;17.20;88.00;;;;;;4988705;28;20025;-80
2022/10/19 08:02:36;;;;;;;2.78;1.20;;;17.20;87.90;;;;;;4992846;28;20086;-80
2022/10/19 08:05:02;;;;;;;2.72;1.02;;;17.30;87.80;;;;;;5007818;28;20157;-80
2022/10/19 08:07:28;;;;;;;2.85;1.10;;;17.30;87.70;;;;;;5008220;28;20044;-80
2022/10/19 08:09:53;;;;;;;2.55;1.20;;;17.40;87.60;;;;;;5006646;28;20101;-80
2022/10/19 08:12:19;;;;;;;1.95;0.95;;;17.40;87.40;;;;;;5006493;28;20022;-80
2022/10/19 08:14:44;;;;;;;2.80;1.10;;;17.50;87.00;;;;;;4992065;28;20556;-80
2022/10/19 08:17:15;;;;;;;2.33;1.10;;;17.50;87.00;;;;;;5006869;28;20027;-80
2022/10/19 08:19:42;;;;;;;1.17;0.90;;;17.50;87.00;;;;;;5006306;28;20023;-80
2022/10/19 08:22:08;;;;;;;1.83;1.00;;;17.50;87.00;;;;;;5005669;28;20265;-79
2022/10/19 08:24:33;;;;;;;3.25;1.30;;;17.50;86.90;;;;;;4991072;28;20587;-80
2022/10/19 08:27:01;;;;;;;2.55;1.17;;;17.50;87.00;;;;;;5006146;28;20030;-81
2022/10/19 08:29:27;;;;;;;1.83;1.05;;;17.40;87.00;;;;;;4989694;28;20440;-80
2022/10/19 08:31:53;;;;;;;1.33;0.95;;;17.40;87.00;;;;;;4989676;28;20274;-79
2022/10/19 08:34:18;;;;;;;1.90;1.10;;;17.40;87.10;;;;;;4990404;28;20042;-79
2022/10/19 08:36:44;;;;;;;2.55;1.27;;;17.40;87.00;;;;;;5003138;28;20072;-81
2022/10/19 08:39:11;;;;;;;1.67;1.10;;;17.40;87.10;;;;;;4983022;28;20084;-80
2022/10/19 08:41:52;;;;;;;4.10;1.30;;;17.40;87.20;;;;;;4988107;28;20665;-78
2022/10/19 08:44:43;;;;;;;2.08;1.17;;;17.40;87.10;;;;;;4987794;28;20088;-80
2022/10/19 08:47:29;;;;;;;1.50;1.00;;;17.40;87.00;;;;;;4989916;28;20504;-80
2022/10/19 08:49:56;;;;;;;2.33;1.13;;;17.40;87.00;;;;;;4989094;28;20030;-79
2022/10/19 08:52:26;;;;;;;2.72;1.15;;;17.50;87.00;;;;;;4987864;28;20036;-79
2022/10/19 08:54:53;;;;;;;2.22;1.10;;;17.60;87.10;;;;;;4987928;28;20133;-82
2022/10/19 08:57:45;;;;;;;2.40;1.10;;;17.50;87.00;;;;;;4989643;28;20305;-80
2022/10/19 09:00:29;;;;;;;1.35;1.00;;;17.50;86.90;;;;;;4991151;28;20081;-80
2022/10/19 09:03:24;;;;;;;3.20;1.00;;;17.50;87.30;;;;;;4990539;28;20026;-81
2022/10/19 09:06:00;;;;;;;1.30;1.00;;;17.50;86.70;;;;;;4991444;28;20145;-81
2022/10/19 09:08:27;;;;;;;1.95;1.10;;;17.50;86.70;;;;;;4990103;28;20034;-81
2022/10/19 09:10:53;;;;;;;2.10;1.27;;;17.50;86.70;;;;;;4990194;28;20475;-81
2022/10/19 09:13:40;;;;;;;3.33;1.30;;;17.60;86.60;;;;;;4990786;28;20022;-80
2022/10/19 09:16:10;;;;;;;2.85;1.00;;;17.50;86.50;;;;;;4989257;28;20053;-81
2022/10/19 09:18:36;;;;;;;2.58;1.10;;;17.60;86.50;;;;;;4990602;28;20026;-81
2022/10/19 09:21:15;;;;;;;2.65;1.17;;;17.60;86.40;;;;;;4988318;28;20018;-80
2022/10/19 09:24:03;;;;;;;1.95;1.10;;;17.60;86.50;;;;;;4988384;28;20476;-81
2022/10/19 09:26:38;;;;;;;1.90;1.10;;;17.50;86.50;;;;;;4989234;28;20070;-81
2022/10/19 09:29:19;;;;;;;3.50;1.20;;;17.50;86.50;;;;;;4987490;28;20108;-79
2022/10/19 09:31:45;;;;;;;2.83;1.13;;;17.50;86.60;;;;;;4988777;28;20100;-81
2022/10/19 09:34:17;;;;;;;1.98;1.00;;;17.50;86.70;;;;;;4987792;28;20026;-80
2022/10/19 09:36:50;;;;;;;1.27;1.00;;;17.50;87.20;;;;;;4988828;28;20510;-80
2022/10/19 09:39:16;;;;;;;2.47;1.02;;;17.60;86.70;;;;;;4985225;28;20285;-80
2022/10/19 09:41:58;;;;;;;2.35;1.13;;;17.50;86.60;;;;;;4985778;28;20504;-80
2022/10/19 09:44:25;;;;;;;1.30;0.90;;;17.60;86.40;;;;;;5002112;28;20460;-80
2022/10/19 09:47:01;;;;;;;2.10;1.13;;;17.60;86.30;;;;;;4987248;28;20500;-81
2022/10/19 09:49:47;;;;;;;1.67;0.90;;;17.60;86.30;;;;;;4987628;28;20041;-80
2022/10/19 09:52:37;;;;;;;1.63;1.00;;;17.60;86.30;;;;;;4984921;28;20408;-79
2022/10/19 09:55:27;;;;;;;3.20;1.20;;;17.60;86.30;;;;;;4985862;28;20601;-79
2022/10/19 09:58:01;;;;;;;2.28;1.20;;;17.60;86.30;;;;;;4986236;28;20431;-79
2022/10/19 10:00:41;;;;;;;2.38;1.00;;;17.60;86.40;;;;;;4985710;28;20270;-80
2022/10/19 10:03:20;;;;;;;3.22;1.20;;;17.60;86.40;;;;;;4987192;28;20500;-81
2022/10/19 10:05:47;;;;;;;3.08;1.20;;;17.60;86.50;;;;;;4986510;28;20036;-81
2022/10/19 10:08:16;;;;;;;2.30;1.40;;;17.60;86.50;;;;;;4986749;28;20560;-80
2022/10/19 10:10:46;;;;;;;2.88;1.30;;;17.60;86.40;;;;;;4985822;28;20405;-80
2022/10/19 10:13:18;;;;;;;3.20;1.15;;;17.50;86.30;;;;;;4985756;28;20036;-82
2022/10/19 10:16:00;;;;;;;2.35;1.10;;;17.60;86.40;;;;;;4987048;28;20466;-81
2022/10/19 10:18:27;;;;;;;1.88;1.10;;;17.60;86.30;;;;;;4985667;28;20031;-80
2022/10/19 10:21:04;;;;;;;1.70;1.00;;;17.60;86.30;;;;;;4986679;28;20492;-80
2022/10/19 10:23:35;;;;;;;2.00;1.00;;;17.60;86.30;;;;;;4986523;28;20030;-79
2022/10/19 10:26:01;;;;;;;2.33;1.00;;;17.50;86.30;;;;;;4984978;28;20420;-81
2022/10/19 10:28:28;;;;;;;3.00;1.17;;;17.60;86.50;;;;;;4986742;28;20130;-80
2022/10/19 10:31:07;;;;;;;1.95;1.20;;;17.50;86.60;;;;;;4988243;28;20145;-81
2022/10/19 10:33:36;;;;;;;2.75;1.20;;;17.50;86.70;;;;;;4991595;28;20492;-82
2022/10/19 10:36:09;;;;;;;1.48;1.00;;;17.50;86.70;;;;;;4991240;28;20089;-82
2022/10/19 10:38:51;;;;;;;2.38;1.15;;;17.50;86.70;;;;;;4989543;28;20111;-83
2022/10/19 10:41:22;;;;;;;2.15;1.10;;;17.40;86.60;;;;;;4985553;28;20057;-82
2022/10/19 10:43:57;;;;;;;2.10;1.20;;;17.50;86.80;;;;;;4989679;28;20030;-81
2022/10/19 10:46:33;;;;;;;2.13;1.10;;;17.40;86.70;;;;;;5005108;28;20030;-81
2022/10/19 10:49:07;;;;;;;2.40;1.00;;;17.40;86.70;;;;;;4988431;28;20035;-79
2022/10/19 10:51:41;;;;;;;2.92;1.10;;;17.40;86.80;;;;;;4989400;28;20045;-81
2022/10/19 10:54:25;;;;;;;2.17;1.10;;;17.40;86.90;;;;;;4988084;28;20018;-79
2022/10/19 10:57:17;;;;;;;1.70;1.10;;;17.40;86.80;;;;;;4988322;28;20510;-80
2022/10/19 10:59:52;;;;;;;1.60;1.00;;;17.40;86.80;;;;;;4988167;28;20026;-81
2022/10/19 11:02:33;;;;;;;2.53;1.20;;;17.40;86.80;;;;;;4990821;28;20058;-80
2022/10/19 11:05:27;;;;;;;1.88;1.00;;;17.40;86.70;;;;;;4990160;28;20431;-81
2022/10/19 11:08:04;;;;;;;2.95;1.30;;;17.50;86.90;;;;;;4988014;28;20058;-80
2022/10/19 11:10:38;;;;;;;2.30;1.00;;;17.40;86.80;;;;;;4990953;28;20034;-79
2022/10/19 11:13:42;;;;;;;3.10;1.10;;;17.40;86.70;;;;;;4990540;28;20038;-83
2022/10/19 11:16:17;;;;;;;2.58;1.00;;;17.50;86.50;;;;;;4989063;28;20042;-81
2022/10/19 11:18:46;;;;;;;2.33;1.08;;;17.50;86.40;;;;;;4991788;28;20026;-80
2022/10/19 11:21:19;;;;;;;2.58;1.08;;;17.50;86.30;;;;;;4989952;28;20030;-81
2022/10/19 11:23:55;;;;;;;1.80;0.93;;;17.50;86.20;;;;;;4991501;28;20089;-79
2022/10/19 11:26:42;;;;;;;2.22;1.00;;;17.50;86.20;;;;;;4990635;28;20065;-82
2022/10/19 11:29:22;;;;;;;3.17;1.17;;;17.50;86.30;;;;;;4994166;28;20125;-81
2022/10/19 11:31:52;;;;;;;1.63;0.82;;;17.50;86.40;;;;;;4994204;28;20413;-81
2022/10/19 11:34:17;;;;;;;2.05;1.00;;;17.50;86.40;;;;;;4993982;28;20038;-81
2022/10/19 11:36:49;;;;;;;2.70;1.00;;;17.50;86.50;;;;;;4993784;28;20030;-81
2022/10/19 11:39:29;;;;;;;;;;;17.50;86.60;;;;;;4993851;28;20027;-80
2022/10/19 11:41:58;;;;;;;1.92;0.93;;;17.50;86.50;;;;;;4990242;28;20047;-81
2022/10/19 11:44:50;;;;;;;2.67;1.10;;;17.40;86.50;;;;;;4988296;28;20041;-81
2022/10/19 11:47:31;;;;;;;1.73;1.10;;;17.50;86.70;;;;;;4993259;28;20053;-82
2022/10/19 11:50:29;;;;;;;2.63;1.10;;;17.50;86.50;;;;;;4991634;28;20030;-82
2022/10/19 11:53:10;;;;;;;2.40;1.10;;;17.50;86.50;;;;;;4992161;28;20121;-81
2022/10/19 11:56:02;;;;;;;1.17;0.90;;;17.40;86.40;;;;;;4991068;28;20023;-81
2022/10/19 11:58:49;;;;;;;1.90;0.95;;;17.40;86.50;;;;;;4987907;28;20161;-81
2022/10/19 12:01:42;;;;;;;1.92;1.10;;;17.40;86.50;;;;;;5006693;28;20352;-82
2022/10/19 12:04:38;;;;;;;2.83;1.10;;;17.40;86.50;;;;;;4991348;28;20130;-81
2022/10/19 12:07:29;;;;;;;1.70;1.00;;;17.40;86.50;;;;;;4989922;28;20125;-80
2022/10/19 12:10:19;;;;;;;2.05;0.90;;;17.40;86.50;;;;;;4989820;28;20076;-80
2022/10/19 12:12:57;;;;;;;2.38;1.10;;;17.40;86.50;;;;;;4990382;28;20485;-80
2022/10/19 12:15:38;;;;;;;1.55;0.90;;;17.50;86.30;;;;;;4989446;28;20448;-82
2022/10/19 12:18:19;;;;;;;2.63;0.95;;;17.40;85.90;;;;;;4991010;28;20176;-81
2022/10/19 12:20:49;;;;;;;2.15;1.10;;;17.50;86.00;;;;;;4990521;28;20026;-79
2022/10/19 12:23:32;;;;;;;2.97;1.02;;;17.50;85.90;;;;;;4988348;28;20030;-80
2022/10/19 12:26:02;;;;;;;2.08;1.00;;;17.50;85.90;;;;;;4988346;28;20109;-81
2022/10/19 12:28:31;;;;;;;1.90;1.10;;;17.50;86.00;;;;;;4988921;28;20040;-81
2022/10/19 12:30:59;;;;;;;1.70;0.88;;;17.50;86.00;;;;;;4989697;28;20040;-81
2022/10/19 12:33:49;;;;;;;2.28;0.80;;;17.50;86.10;;;;;;4988385;28;20298;-80
2022/10/19 12:36:26;;;;;;;;;;;17.50;86.00;;;;;;4990012;28;20110;-79
2022/10/19 12:39:16;;;;;;;2.90;0.90;;;17.50;86.30;;;;;;4988200;28;19910;-81
2022/10/19 12:41:43;;;;;;;1.98;0.90;;;17.50;86.20;;;;;;4988839;28;20022;-81
2022/10/19 12:44:55;;;;;;;1.63;0.90;;;17.60;86.30;;;;;;4989663;28;20481;-80
2022/10/19 12:47:23;;;;;;;1.85;0.88;;;17.50;86.30;;;;;;4988544;28;20038;-81
2022/10/19 12:49:56;;;;;;;1.33;0.80;;;17.50;86.30;;;;;;4987748;28;20454;-79
2022/10/19 12:52:45;;;;;;;1.50;0.73;;;17.50;86.20;;;;;;4986178;28;20026;-80
2022/10/19 12:55:16;;;;;;;1.77;1.00;;;17.50;86.20;;;;;;4986702;28;20571;-79
2022/10/19 12:57:47;;;;;;;1.02;0.85;;;17.50;86.30;;;;;;4988046;28;20034;-82
2022/10/19 13:00:18;;;;;;;2.45;0.98;;;17.50;86.20;;;;;;5003028;28;20385;-82
2022/10/19 13:02:45;;;;;;;;;;;17.50;86.20;;;;;;4987424;28;20072;-80
2022/10/19 13:05:20;;;;;;;1.95;0.90;;;17.50;86.20;;;;;;4986758;28;19925;-80
2022/10/19 13:07:48;;;;;;;2.22;0.90;;;17.50;86.10;;;;;;4988427;28;20038;-82